createdAt,value
2023-06-07T00:02:04.565Z,1
2023-06-07T00:14:04.467Z,1
2023-06-07T00:26:04.663Z,1
2023-06-07T00:38:04.621Z,1
2023-06-07T00:50:04.760Z,1
2023-06-07T01:02:04.734Z,1
2023-06-07T01:14:04.690Z,1
2023-06-07T01:26:04.650Z,1
2023-06-07T01:38:04.603Z,1
2023-06-07T01:50:04.960Z,1
2023-06-07T02:02:04.733Z,1
2023-06-07T02:14:04.700Z,1
2023-06-07T02:26:04.666Z,1
2023-06-07T02:38:04.801Z,1
2023-06-07T02:50:05.049Z,1
2023-06-07T03:02:04.745Z,1
2023-06-07T03:14:04.865Z,4
2023-06-07T03:26:04.820Z,12
2023-06-07T03:38:04.798Z,24
2023-06-07T03:50:05.098Z,37
2023-06-07T04:02:04.893Z,49
2023-06-07T04:14:04.829Z,60
2023-06-07T04:26:04.827Z,67
2023-06-07T04:38:04.755Z,72
2023-06-07T04:50:05.081Z,78
2023-06-07T05:02:04.858Z,81
2023-06-07T05:14:04.843Z,85
2023-06-07T05:26:04.994Z,87
2023-06-07T05:38:05.006Z,87
2023-06-07T05:50:05.233Z,89
2023-06-07T06:02:05.072Z,89
2023-06-07T06:14:05.002Z,89
2023-06-07T06:26:04.989Z,90
2023-06-07T06:38:04.922Z,92
2023-06-07T06:50:09.674Z,93
2023-06-07T07:02:12.469Z,93
2023-06-07T07:14:05.102Z,94
2023-06-07T07:26:04.954Z,94
2023-06-07T07:38:05.194Z,95
2023-06-07T07:50:05.204Z,95
2023-06-07T08:02:05.082Z,95
2023-06-07T08:14:04.967Z,96
2023-06-07T08:26:05.155Z,96
2023-06-07T08:38:05.123Z,96
2023-06-07T08:50:05.649Z,96
2023-06-07T09:02:48.539Z,97
2023-06-07T09:14:05.374Z,97
2023-06-07T09:26:05.168Z,97
2023-06-07T09:38:05.280Z,97
2023-06-07T09:50:05.166Z,97
2023-06-07T10:02:05.442Z,97
2023-06-07T10:14:05.180Z,97
2023-06-07T10:26:05.187Z,97
2023-06-07T10:38:05.327Z,97
2023-06-07T10:50:05.439Z,98
2023-06-07T11:02:05.364Z,98
2023-06-07T11:14:05.485Z,98
2023-06-07T11:26:05.263Z,98
2023-06-07T11:38:05.204Z,97
2023-06-07T11:50:05.512Z,97
2023-06-07T12:02:05.353Z,97
2023-06-07T12:14:05.305Z,97
2023-06-07T12:26:05.352Z,96
2023-06-07T12:38:05.415Z,96
2023-06-07T12:50:05.683Z,96
2023-06-07T13:02:05.467Z,96
2023-06-07T13:14:05.394Z,96
2023-06-07T13:26:05.477Z,96
2023-06-07T13:38:05.450Z,96
2023-06-07T13:50:05.596Z,95
2023-06-07T14:02:05.571Z,95
2023-06-07T14:14:05.496Z,95
2023-06-07T14:26:05.457Z,95
2023-06-07T14:38:05.389Z,95
2023-06-07T14:50:05.587Z,95
2023-06-07T15:02:57.465Z,95
2023-06-07T15:14:05.483Z,95
2023-06-07T15:26:05.502Z,94
2023-06-07T15:38:05.547Z,94
2023-06-07T15:50:05.661Z,94
2023-06-07T16:02:05.461Z,94
2023-06-07T16:14:05.604Z,94
2023-06-07T16:26:05.644Z,94
2023-06-07T16:38:05.635Z,94
2023-06-07T16:50:05.852Z,94
2023-06-07T17:02:05.617Z,94
2023-06-07T17:14:05.649Z,94
2023-06-07T17:26:06.328Z,94
2023-06-07T17:38:05.654Z,94
2023-06-07T17:50:05.754Z,94
2023-06-07T18:02:05.852Z,94
2023-06-07T18:14:05.711Z,94
2023-06-07T18:26:05.681Z,94
2023-06-07T18:38:05.870Z,93
2023-06-07T18:50:05.956Z,93
2023-06-07T19:02:05.833Z,93
2023-06-07T19:14:05.872Z,92
2023-06-07T19:26:05.652Z,91
2023-06-07T19:38:05.852Z,90
2023-06-07T19:50:05.771Z,88
2023-06-07T20:02:05.787Z,86
2023-06-07T20:14:05.908Z,81
2023-06-07T20:26:08.680Z,73
2023-06-07T20:38:05.815Z,60
2023-06-07T20:50:05.982Z,43
2023-06-07T21:02:05.940Z,23
2023-06-07T21:14:05.924Z,8
2023-06-07T21:26:05.863Z,3
2023-06-07T21:38:05.913Z,2
2023-06-07T21:50:06.181Z,1
2023-06-07T22:02:05.970Z,1
2023-06-07T22:14:05.911Z,1
2023-06-07T22:26:05.974Z,1
2023-06-07T22:38:06.031Z,1
2023-06-07T22:50:06.272Z,1
2023-06-07T23:02:06.009Z,1
2023-06-07T23:14:05.904Z,1
2023-06-07T23:26:06.137Z,1
2023-06-07T23:38:06.084Z,1
2023-06-07T23:50:06.127Z,1
